Santa Maria Madalena, Brazil
Current Conditions -  °F | °C
As of 5:00 AM on Tuesday 21 Oct 2014 (Local Time) from SBME Reporting Station
Drizzle Drizzle  
Wind Chill: 72°   Ceiling: 1300
Heat Index: 72°   Visibility: 3mi
Dew Point: 70°   Wind: 2mph
Humidity: 94%   Direction: 250°WSW
Pressure: 30"   Gusts: NA
Location:  21.96°S, 42.01°W
Report Text: SBME 210700Z 25002KT 5000 -DZ FEW009 BKN013 OVC060 22/21 Q1016
Loading
Personal Weather Stations






























Interactive Weather Map
Tropical Storm Tracking
New forecast layout! Learn more

10-Day Weather Forecast

Advertisements
Track Severe Weather on mobile